mercredi 4 juin 2014

ALERTE SPOTTING 04/06/14 (MàJ 05h00)


320 F-GHQE Air Corsica (blanc avec titre)
   XK4501/xk4500   07h35/08h30
 
320 blanc? G-POWI
   U24242/U24243  09h05/09h35

73H CN-RGN RAM (sticker 50th 737)
   AT764/AT765   16h15/17h30

Manque les prévisions de certains AB/AH/AZ/BA/BE/IB/KM/TP/TU

*** Horaires en Heure Locale ***
Prévisions matinales soumises à modifications de dernières minutes.

Voir le log du mois pour la version 'définitive' de la journée: 
 http://www.airkalo.com/ORLYAVIATION/Logdumois.html

le TAF de la journée:

METAR: LFPO 040230Z 19004KT 160V220 9999 -RA FEW026 SCT046 BKN080
13/12 Q1008 TEMPO 5000 RA BKN010=
TAF LONG: LFPO 032300Z 0400/0506 19005KT 9999 -RA SCT015 BKN050 TEMPO
0400/0412 4000 RA BKN008 PROB30 TEMPO 0411/0412 20020G30KT 2000 TSRA
SCT020CB FM041200 26015KT 9999 SCT020 TEMPO 0412/0418 26015G25KT
PROB30 TEMPO 0412/0418 SCT020TCU BECMG 0503/0506 22005KT=